Time;durP1;ratioP1;P1;durP2;ratioP2;P2;SDS_P1;SDS_P2;PMS_P1;PMS_P2;Temp;Humidity;BMP_temperature;BMP_pressure;BME280_temperature;BME280_humidity;BME280_pressure;Samples;Min_cycle;Max_cycle;Signal;HPM_P1;HPM_P2
2023/08/03 13:51:19;;;;;;;;;;;;;;;;;;;;;
2023/08/03 13:53:45;;;;;;;5.63;2.38;;;35.70;70.60;;;;;;4969325;28;20098;-96
2023/08/03 13:56:29;;;;;;;8.93;2.67;;;35.70;70.20;;;;;;4979855;28;20066;-96
2023/08/03 13:59:07;;;;;;;5.50;2.40;;;35.70;70.10;;;;;;4960078;28;20019;-96
2023/08/03 14:01:39;;;;;;;5.43;2.60;;;35.60;69.80;;;;;;4979320;28;20046;-96
2023/08/03 14:04:07;;;;;;;6.22;1.85;;;35.40;70.00;;;;;;4942698;28;20050;-96
2023/08/03 14:06:36;;;;;;;7.07;2.72;;;35.10;70.30;;;;;;4971446;28;20073;-96
2023/08/03 14:09:03;;;;;;;2.88;1.92;;;34.90;71.20;;;;;;4978005;28;20015;-96
2023/08/03 14:11:29;;;;;;;5.78;2.60;;;34.60;71.80;;;;;;4985200;23;20049;-87
2023/08/03 14:14:00;;;;;;;4.75;2.33;;;34.50;72.40;;;;;;4977512;28;20038;-86
2023/08/03 14:16:26;;;;;;;5.40;2.17;;;34.30;73.00;;;;;;4976424;28;20015;-84
2023/08/03 14:18:52;;;;;;;9.90;2.58;;;34.30;73.40;;;;;;4973862;28;20028;-85
2023/08/03 14:21:18;;;;;;;8.45;3.03;;;34.30;73.60;;;;;;4968417;28;20023;-83
2023/08/03 14:23:44;;;;;;;10.98;2.97;;;34.30;73.80;;;;;;4959995;28;20484;-83
2023/08/03 14:26:09;;;;;;;5.85;2.13;;;34.30;74.30;;;;;;4976914;28;20113;-83
2023/08/03 14:28:35;;;;;;;4.40;1.98;;;34.10;74.80;;;;;;4960251;28;20074;-83
2023/08/03 14:31:03;;;;;;;6.25;2.47;;;34.00;75.50;;;;;;4967326;28;20019;-83
2023/08/03 14:33:29;;;;;;;3.75;2.08;;;33.90;76.40;;;;;;4987798;28;20749;-83
2023/08/03 14:35:54;;;;;;;6.53;3.10;;;33.80;76.70;;;;;;4971981;28;20055;-84
2023/08/03 14:38:20;;;;;;;7.53;2.72;;;33.60;77.50;;;;;;4971252;28;20114;-83
2023/08/03 14:40:46;;;;;;;8.75;2.85;;;33.50;77.40;;;;;;4970228;28;20031;-83
2023/08/03 14:43:11;;;;;;;6.80;2.88;;;33.50;77.80;;;;;;4958003;28;20110;-84
2023/08/03 14:45:38;;;;;;;4.93;2.50;;;33.50;77.60;;;;;;4966342;28;20031;-83
2023/08/03 14:48:03;;;;;;;6.57;2.83;;;33.50;77.30;;;;;;4962005;28;20032;-83
2023/08/03 14:50:33;;;;;;;5.63;2.80;;;33.40;77.50;;;;;;4965215;28;20355;-83
2023/08/03 14:52:58;;;;;;;8.05;2.80;;;33.40;77.20;;;;;;4970681;28;20031;-83
2023/08/03 14:55:24;;;;;;;5.05;2.20;;;33.20;77.60;;;;;;4960600;28;20026;-84
2023/08/03 14:57:50;;;;;;;7.20;2.63;;;33.10;76.60;;;;;;4957300;28;20106;-83
2023/08/03 15:00:16;;;;;;;5.07;2.40;;;33.10;76.80;;;;;;4960410;28;20353;-83
2023/08/03 15:02:43;;;;;;;6.72;3.10;;;33.00;76.70;;;;;;4959134;28;20039;-83
2023/08/03 15:05:09;;;;;;;7.68;2.58;;;32.90;77.80;;;;;;4971852;28;20023;-83
2023/08/03 15:07:35;;;;;;;7.93;2.80;;;32.80;78.90;;;;;;4972802;28;20528;-84
2023/08/03 15:10:02;;;;;;;10.50;2.92;;;32.60;80.40;;;;;;4974757;28;20118;-83
2023/08/03 15:12:30;;;;;;;6.60;2.75;;;32.50;80.00;;;;;;4972330;28;20473;-83
2023/08/03 15:14:56;;;;;;;4.03;2.38;;;32.40;80.40;;;;;;4968556;28;20023;-84
2023/08/03 15:17:21;;;;;;;7.45;2.97;;;32.40;81.00;;;;;;4964586;28;20097;-83
2023/08/03 15:19:47;;;;;;;7.78;2.53;;;32.40;81.20;;;;;;4971965;28;20031;-83
2023/08/03 15:22:13;;;;;;;6.57;2.88;;;32.40;81.40;;;;;;4970710;28;20046;-83
2023/08/03 15:24:39;;;;;;;6.70;2.70;;;32.40;81.50;;;;;;4958314;28;20109;-83
2023/08/03 15:27:05;;;;;;;7.43;2.78;;;32.40;81.90;;;;;;4962918;28;20027;-83
2023/08/03 15:29:31;;;;;;;8.45;2.75;;;32.40;82.30;;;;;;4957012;28;20397;-84
2023/08/03 15:31:57;;;;;;;8.48;2.85;;;32.40;82.80;;;;;;4964038;28;20596;-83
2023/08/03 15:34:24;;;;;;;8.55;3.00;;;32.40;83.60;;;;;;4969911;28;20041;-83
2023/08/03 15:36:50;;;;;;;4.85;2.08;;;32.40;83.20;;;;;;4964228;28;20039;-83
2023/08/03 15:39:15;;;;;;;7.45;2.40;;;32.40;82.20;;;;;;4955368;28;20029;-83
2023/08/03 15:41:42;;;;;;;5.20;2.47;;;32.40;81.20;;;;;;4972743;28;20031;-83
2023/08/03 15:44:09;;;;;;;4.53;2.28;;;32.50;80.50;;;;;;4973177;28;20029;-86
2023/08/03 15:46:35;;;;;;;8.68;2.53;;;32.60;79.50;;;;;;4965486;28;20043;-82
2023/08/03 15:49:01;;;;;;;5.00;2.40;;;32.60;78.80;;;;;;4953262;28;20090;-80
2023/08/03 15:51:26;;;;;;;5.15;2.33;;;32.70;78.20;;;;;;4975310;28;20038;-79
2023/08/03 15:53:52;;;;;;;10.68;2.80;;;32.70;77.90;;;;;;4974844;28;20595;-79
2023/08/03 15:56:18;;;;;;;4.15;2.15;;;32.70;77.40;;;;;;4972662;28;20083;-78
2023/08/03 15:58:44;;;;;;;7.55;2.42;;;32.70;76.90;;;;;;4971316;28;20026;-78
2023/08/03 16:01:10;;;;;;;5.70;2.30;;;32.60;77.10;;;;;;4957855;28;20082;-79
2023/08/03 16:03:39;;;;;;;4.22;2.15;;;32.60;77.50;;;;;;4961214;28;20499;-80
2023/08/03 16:06:12;;;;;;;8.82;2.30;;;32.50;77.70;;;;;;4946869;29;20031;-83
2023/08/03 16:08:39;;;;;;;5.90;2.55;;;32.40;77.80;;;;;;4956643;29;20031;-83
2023/08/03 16:11:05;;;;;;;4.22;2.00;;;32.40;78.40;;;;;;4963012;28;20034;-83
2023/08/03 16:13:31;;;;;;;5.30;1.90;;;32.40;78.20;;;;;;4990364;28;20097;-83
2023/08/03 16:16:01;;;;;;;3.75;2.05;;;32.40;77.40;;;;;;4990619;28;20050;-83
2023/08/03 16:18:27;;;;;;;;;;;32.40;76.80;;;;;;4976231;28;20381;-83
2023/08/03 16:20:56;;;;;;;5.40;1.90;;;32.40;76.30;;;;;;4970492;28;19922;-83
2023/08/03 16:23:24;;;;;;;3.97;2.22;;;32.40;76.90;;;;;;4961456;28;20109;-83
2023/08/03 16:25:50;;;;;;;5.75;2.28;;;32.30;76.60;;;;;;4975645;28;20481;-83
2023/08/03 16:28:16;;;;;;;5.93;2.03;;;32.30;76.40;;;;;;4957732;28;20046;-83
2023/08/03 16:30:42;;;;;;;5.28;1.65;;;32.30;76.40;;;;;;4975143;28;20098;-83
2023/08/03 16:33:07;;;;;;;3.95;1.90;;;32.30;75.60;;;;;;4975264;28;20041;-83
2023/08/03 16:35:37;;;;;;;4.95;2.15;;;32.30;75.20;;;;;;4974000;28;20030;-83
2023/08/03 16:38:03;;;;;;;4.72;1.77;;;32.30;74.50;;;;;;4972746;28;20058;-83
2023/08/03 16:40:29;;;;;;;7.82;1.75;;;32.20;73.50;;;;;;4955918;28;20106;-83
2023/08/03 16:42:56;;;;;;;3.55;1.48;;;32.20;73.60;;;;;;4955835;29;20031;-83
2023/08/03 16:45:21;;;;;;;4.82;1.92;;;32.20;73.70;;;;;;4955927;29;20094;-83
2023/08/03 16:47:47;;;;;;;6.32;1.80;;;32.20;73.80;;;;;;4959222;28;20121;-83
2023/08/03 16:50:13;;;;;;;3.15;1.65;;;32.20;74.00;;;;;;4956306;28;20041;-83
2023/08/03 16:52:39;;;;;;;2.97;2.00;;;32.10;74.20;;;;;;4956083;28;20537;-84
2023/08/03 16:55:05;;;;;;;7.32;2.47;;;32.10;74.00;;;;;;4955488;29;20031;-84
2023/08/03 16:57:32;;;;;;;4.53;2.42;;;32.10;74.80;;;;;;4938846;29;20039;-83
2023/08/03 16:59:58;;;;;;;9.05;1.95;;;32.10;75.20;;;;;;4955957;29;20019;-84
2023/08/03 17:02:24;;;;;;;6.13;2.70;;;32.00;75.40;;;;;;4960802;28;20023;-83
2023/08/03 17:04:50;;;;;;;6.63;2.10;;;31.90;75.30;;;;;;4975062;28;20097;-83
2023/08/03 17:07:16;;;;;;;7.18;2.03;;;31.90;75.60;;;;;;4974674;28;20430;-83
2023/08/03 17:09:42;;;;;;;5.43;2.13;;;31.80;76.40;;;;;;4974610;28;20023;-83
2023/08/03 17:12:08;;;;;;;7.03;2.20;;;31.80;76.40;;;;;;4974230;28;20047;-83
2023/08/03 17:14:37;;;;;;;4.70;1.92;;;31.80;76.60;;;;;;4965881;28;20035;-83
2023/08/03 17:17:04;;;;;;;5.93;1.90;;;31.80;77.10;;;;;;4962371;28;20031;-84
2023/08/03 17:19:30;;;;;;;3.78;2.25;;;31.70;77.00;;;;;;4960789;28;20378;-84
2023/08/03 17:21:56;;;;;;;2.35;1.88;;;31.70;77.10;;;;;;4962542;28;20043;-84
2023/08/03 17:24:22;;;;;;;4.68;2.22;;;31.80;77.40;;;;;;4963626;28;20053;-83
2023/08/03 17:26:48;;;;;;;3.92;2.47;;;31.70;77.50;;;;;;4972290;28;20484;-84
2023/08/03 17:29:15;;;;;;;5.50;2.38;;;31.70;77.60;;;;;;4971959;28;20086;-84
2023/08/03 17:31:41;;;;;;;5.80;2.03;;;31.70;77.60;;;;;;4964746;28;20486;-84
2023/08/03 17:34:08;;;;;;;4.57;2.10;;;31.60;78.00;;;;;;4970585;28;20035;-84
2023/08/03 17:36:35;;;;;;;4.80;2.33;;;31.50;78.40;;;;;;4959738;28;20036;-84
2023/08/03 17:39:03;;;;;;;5.13;2.10;;;31.50;79.10;;;;;;4971264;28;20035;-84
2023/08/03 17:41:30;;;;;;;7.90;3.05;;;31.40;79.70;;;;;;4963739;28;20105;-84
2023/08/03 17:43:56;;;;;;;5.38;1.80;;;31.30;80.70;;;;;;4964367;28;20041;-83
2023/08/03 17:46:22;;;;;;;5.07;2.55;;;31.10;80.60;;;;;;4970205;28;20044;-84
2023/08/03 17:48:47;;;;;;;4.00;1.85;;;31.00;81.50;;;;;;4972825;28;20023;-83
2023/08/03 17:51:14;;;;;;;6.32;2.28;;;30.90;81.10;;;;;;4966961;28;20046;-84
2023/08/03 17:53:44;;;;;;;3.50;2.10;;;30.70;81.20;;;;;;4972531;28;20027;-84
2023/08/03 17:56:15;;;;;;;3.47;1.67;;;30.50;81.10;;;;;;4954987;28;20059;-84
2023/08/03 17:58:43;;;;;;;2.80;1.50;;;30.40;81.80;;;;;;4970327;28;20023;-84
2023/08/03 18:01:12;;;;;;;4.10;2.00;;;30.30;81.70;;;;;;4971711;28;20034;-84
2023/08/03 18:03:38;;;;;;;5.63;2.03;;;30.20;82.30;;;;;;4962834;28;20046;-84
2023/08/03 18:06:04;;;;;;;5.25;1.98;;;30.10;82.90;;;;;;4962609;28;20031;-83
2023/08/03 18:08:30;;;;;;;5.13;2.10;;;30.00;82.60;;;;;;4965053;28;20465;-84
2023/08/03 18:11:02;;;;;;;3.22;1.85;;;30.00;83.10;;;;;;4970915;28;20365;-84
2023/08/03 18:13:28;;;;;;;4.72;1.95;;;29.90;83.70;;;;;;4971742;28;20519;-84
2023/08/03 18:15:59;;;;;;;3.00;1.80;;;29.90;83.20;;;;;;4966151;28;20051;-84
2023/08/03 18:18:25;;;;;;;3.78;1.60;;;29.80;83.10;;;;;;4972468;28;20030;-84
2023/08/03 18:20:50;;;;;;;5.03;1.60;;;29.70;83.40;;;;;;4955948;28;20033;-84
2023/08/03 18:23:16;;;;;;;4.03;2.40;;;29.70;83.80;;;;;;4961376;28;20027;-85
2023/08/03 18:25:42;;;;;;;2.60;1.70;;;29.60;83.50;;;;;;4966956;28;20034;-84
2023/08/03 18:28:08;;;;;;;2.95;1.90;;;29.60;83.50;;;;;;4962400;28;20546;-79
2023/08/03 18:30:33;;;;;;;5.18;2.05;;;29.50;83.80;;;;;;4962363;28;20086;-79
2023/08/03 18:32:59;;;;;;;4.80;2.03;;;29.40;84.00;;;;;;4968836;28;20061;-79
2023/08/03 18:35:25;;;;;;;4.55;2.10;;;29.30;83.90;;;;;;4966621;28;20381;-79
2023/08/03 18:37:51;;;;;;;6.80;2.17;;;29.30;84.20;;;;;;4959794;28;20058;-79
2023/08/03 18:40:17;;;;;;;3.80;1.85;;;29.20;84.60;;;;;;4969413;28;20035;-79
2023/08/03 18:42:43;;;;;;;5.03;2.25;;;29.20;84.80;;;;;;4969835;28;20034;-79
2023/08/03 18:45:10;;;;;;;4.30;1.92;;;29.20;85.00;;;;;;4970388;28;20374;-79
2023/08/03 18:47:35;;;;;;;5.13;2.40;;;29.20;85.10;;;;;;4963666;28;20030;-79
2023/08/03 18:50:03;;;;;;;3.90;2.10;;;29.10;85.20;;;;;;4970838;28;20595;-79
2023/08/03 18:52:29;;;;;;;5.80;2.00;;;29.10;85.20;;;;;;4961452;28;20027;-86
2023/08/03 18:54:54;;;;;;;5.95;2.30;;;29.00;85.30;;;;;;4973679;28;20404;-77
2023/08/03 18:57:20;;;;;;;4.38;1.83;;;29.00;85.50;;;;;;4976362;28;20031;-77
2023/08/03 18:59:46;;;;;;;7.63;2.50;;;28.90;85.40;;;;;;4964624;28;20063;-78
2023/08/03 19:02:12;;;;;;;5.15;2.22;;;28.90;85.60;;;;;;4966305;28;20374;-78
2023/08/03 19:04:38;;;;;;;2.97;1.60;;;28.80;85.60;;;;;;4971841;28;20037;-78
2023/08/03 19:07:05;;;;;;;5.18;2.20;;;28.80;86.00;;;;;;4955173;28;20109;-77
2023/08/03 19:09:31;;;;;;;5.60;2.20;;;28.70;85.90;;;;;;4955026;28;20031;-77
2023/08/03 19:11:57;;;;;;;5.38;2.17;;;28.70;86.00;;;;;;4966454;28;20031;-83
2023/08/03 19:14:22;;;;;;;3.13;1.73;;;28.60;86.20;;;;;;4967241;28;20417;-82
2023/08/03 19:16:48;;;;;;;3.92;1.73;;;28.40;86.30;;;;;;4969659;28;20042;-82
2023/08/03 19:19:14;;;;;;;3.97;2.00;;;28.30;86.40;;;;;;4962364;28;20023;-83
2023/08/03 19:21:40;;;;;;;3.53;1.63;;;28.30;86.80;;;;;;4965906;28;20417;-82
2023/08/03 19:24:05;;;;;;;3.90;1.70;;;28.30;87.10;;;;;;4965240;28;20035;-81
2023/08/03 19:26:31;;;;;;;4.55;2.10;;;28.30;87.00;;;;;;4964115;28;20090;-82
2023/08/03 19:28:57;;;;;;;2.60;1.83;;;28.30;87.00;;;;;;4967121;28;20045;-83
2023/08/03 19:31:22;;;;;;;2.97;1.67;;;28.30;87.20;;;;;;4959601;28;20101;-83
2023/08/03 19:33:48;;;;;;;5.18;1.85;;;28.20;87.20;;;;;;4961107;28;20072;-84
2023/08/03 19:36:14;;;;;;;3.22;1.80;;;28.20;87.50;;;;;;4950950;28;20152;-84
2023/08/03 19:38:40;;;;;;;5.03;2.22;;;28.10;87.90;;;;;;4958774;28;20054;-83
2023/08/03 19:41:06;;;;;;;5.05;1.67;;;27.90;88.20;;;;;;4962754;28;20105;-83
2023/08/03 19:43:31;;;;;;;4.05;1.58;;;27.90;88.40;;;;;;4966418;28;20675;-83
2023/08/03 19:45:57;;;;;;;3.40;1.75;;;27.90;88.40;;;;;;4965584;28;20496;-77
2023/08/03 19:48:25;;;;;;;3.22;1.70;;;27.90;88.50;;;;;;4963258;28;20135;-77
2023/08/03 19:50:51;;;;;;;2.33;1.67;;;28.00;88.60;;;;;;4951912;28;20098;-77
2023/08/03 19:53:19;;;;;;;1.90;1.60;;;28.00;88.50;;;;;;4955144;28;20034;-84
2023/08/03 19:55:46;;;;;;;2.85;1.70;;;27.90;88.00;;;;;;4962458;28;20031;-83
2023/08/03 19:58:12;;;;;;;4.18;2.20;;;27.90;88.50;;;;;;4968181;28;20030;-83
2023/08/03 20:00:38;;;;;;;2.13;1.63;;;27.90;88.20;;;;;;4969180;28;20023;-83
2023/08/03 20:03:04;;;;;;;2.40;1.50;;;27.80;88.10;;;;;;4961574;28;20462;-83
2023/08/03 20:05:30;;;;;;;4.03;1.90;;;27.80;88.40;;;;;;4972532;28;20042;-84
2023/08/03 20:07:56;;;;;;;3.03;1.67;;;27.70;88.50;;;;;;4969857;28;20031;-78
2023/08/03 20:10:21;;;;;;;3.15;1.95;;;27.60;88.50;;;;;;4968123;28;20045;-78
2023/08/03 20:12:47;;;;;;;6.95;1.83;;;27.60;89.00;;;;;;4964847;28;20394;-83
2023/08/03 20:15:13;;;;;;;2.38;1.55;;;27.50;89.00;;;;;;4971735;28;20433;-83
2023/08/03 20:17:39;;;;;;;2.00;1.58;;;27.40;89.10;;;;;;4967603;28;20057;-83
2023/08/03 20:20:06;;;;;;;1.75;1.45;;;27.40;89.10;;;;;;4967100;28;20663;-77
2023/08/03 20:22:33;;;;;;;2.72;1.80;;;27.40;89.30;;;;;;4966902;28;20031;-77
2023/08/03 20:24:59;;;;;;;2.17;1.40;;;27.20;89.10;;;;;;4953788;28;20492;-78
2023/08/03 20:27:25;;;;;;;3.75;1.33;;;27.20;88.90;;;;;;4967151;28;20031;-78
2023/08/03 20:29:51;;;;;;;5.20;1.27;;;27.20;88.60;;;;;;4969467;28;20037;-78
2023/08/03 20:32:17;;;;;;;2.78;1.20;;;27.20;88.40;;;;;;4964077;28;20114;-78
2023/08/03 20:34:44;;;;;;;1.63;1.33;;;27.10;88.20;;;;;;4946474;29;20035;-78
2023/08/03 20:37:10;;;;;;;4.38;1.40;;;27.10;88.20;;;;;;4970813;28;20037;-83
2023/08/03 20:39:36;;;;;;;1.50;1.00;;;27.10;88.40;;;;;;4957692;28;20031;-83
2023/08/03 20:42:03;;;;;;;3.45;1.63;;;27.10;88.60;;;;;;4969250;28;20563;-78
2023/08/03 20:44:29;;;;;;;2.53;1.23;;;27.10;88.30;;;;;;4959620;28;20042;-77
2023/08/03 20:46:55;;;;;;;2.20;1.40;;;27.10;88.20;;;;;;4968558;28;20027;-77
2023/08/03 20:49:21;;;;;;;3.00;1.60;;;27.20;88.20;;;;;;4963724;28;20560;-77
2023/08/03 20:51:47;;;;;;;1.95;1.30;;;27.20;88.20;;;;;;4966319;28;20034;-78
2023/08/03 20:54:15;;;;;;;1.63;1.20;;;27.30;88.10;;;;;;4953504;28;20043;-78
2023/08/03 20:56:40;;;;;;;1.42;1.30;;;27.20;87.70;;;;;;4969661;28;20062;-78
2023/08/03 20:59:06;;;;;;;1.30;1.13;;;27.20;87.80;;;;;;4970475;28;20062;-83
2023/08/03 21:01:32;;;;;;;1.83;1.33;;;27.20;87.90;;;;;;4959702;28;20388;-84
2023/08/03 21:03:58;;;;;;;2.97;1.40;;;27.20;87.90;;;;;;4964362;28;20034;-84
2023/08/03 21:06:23;;;;;;;1.52;1.40;;;27.20;88.10;;;;;;4971993;28;20058;-85
2023/08/03 21:08:49;;;;;;;2.67;1.42;;;27.20;88.10;;;;;;4961448;28;20508;-85
2023/08/03 21:11:15;;;;;;;1.52;1.30;;;27.20;88.50;;;;;;4964030;28;20027;-85
2023/08/03 21:13:44;;;;;;;2.90;1.52;;;27.20;88.20;;;;;;4961566;28;20049;-88
2023/08/03 21:16:11;;;;;;;2.05;1.60;;;27.20;88.20;;;;;;4957649;28;20114;-76
2023/08/03 21:18:37;;;;;;;3.17;1.95;;;27.20;88.40;;;;;;4966270;28;20020;-76
2023/08/03 21:21:03;;;;;;;2.00;1.60;;;27.20;88.70;;;;;;4957557;28;20023;-76
2023/08/03 21:23:29;;;;;;;2.60;1.45;;;27.20;88.80;;;;;;4971175;28;20056;-81
2023/08/03 21:25:55;;;;;;;1.50;1.20;;;27.20;89.20;;;;;;4957037;28;20511;-75
2023/08/03 21:28:22;;;;;;;1.83;1.38;;;27.20;89.10;;;;;;4971966;28;20027;-77
2023/08/03 21:30:47;;;;;;;3.67;1.63;;;27.20;88.90;;;;;;4974741;28;20022;-80
2023/08/03 21:33:13;;;;;;;1.98;1.42;;;27.20;89.00;;;;;;4948142;28;20038;-80
2023/08/03 21:35:39;;;;;;;3.20;1.50;;;27.20;88.90;;;;;;4974585;28;20113;-82
2023/08/03 21:38:04;;;;;;;2.40;1.50;;;27.20;88.90;;;;;;4972082;28;20023;-81
2023/08/03 21:40:30;;;;;;;2.22;1.60;;;27.20;89.30;;;;;;4973903;28;20096;-77
2023/08/03 21:42:56;;;;;;;3.10;1.40;;;27.20;89.30;;;;;;4973160;28;20027;-76
2023/08/03 21:45:22;;;;;;;3.22;1.52;;;27.10;89.20;;;;;;4973903;28;20491;-76
2023/08/03 21:47:47;;;;;;;2.67;1.50;;;27.10;89.70;;;;;;4973023;28;20029;-77
2023/08/03 21:50:14;;;;;;;2.53;1.65;;;27.10;89.80;;;;;;4965555;28;20034;-82
2023/08/03 21:52:40;;;;;;;1.40;1.30;;;27.00;89.70;;;;;;4973629;28;20078;-82
2023/08/03 21:55:07;;;;;;;4.10;1.92;;;26.90;89.80;;;;;;4950914;28;20152;-76
2023/08/03 21:57:32;;;;;;;2.17;1.35;;;26.90;90.00;;;;;;4957417;28;20037;-76
2023/08/03 21:59:58;;;;;;;2.97;1.70;;;26.90;90.10;;;;;;4972480;28;20425;-76
2023/08/03 22:02:24;;;;;;;13.75;1.98;;;27.00;90.30;;;;;;4968288;28;20015;-75
2023/08/03 22:04:50;;;;;;;4.28;2.28;;;27.00;90.30;;;;;;4943036;28;20031;-77
2023/08/03 22:07:16;;;;;;;2.67;2.08;;;27.00;90.30;;;;;;4952375;28;20053;-76
2023/08/03 22:09:41;;;;;;;3.13;1.73;;;27.00;90.30;;;;;;4941928;28;20113;-76
2023/08/03 22:12:08;;;;;;;3.67;1.80;;;27.00;90.30;;;;;;4941123;29;20048;-76
2023/08/03 22:14:33;;;;;;;2.17;1.50;;;26.90;90.30;;;;;;4966614;28;20046;-76
2023/08/03 22:16:59;;;;;;;2.72;1.73;;;26.90;90.30;;;;;;4974060;28;20041;-75
2023/08/03 22:19:25;;;;;;;4.15;1.38;;;26.90;90.40;;;;;;4964496;28;20113;-77
2023/08/03 22:21:51;;;;;;;2.30;1.52;;;26.90;90.50;;;;;;4975348;28;20377;-75
2023/08/03 22:24:18;;;;;;;2.17;1.25;;;26.90;90.50;;;;;;4976582;28;20055;-76
2023/08/03 22:26:44;;;;;;;2.30;1.52;;;26.90;90.50;;;;;;4977629;28;20034;-76
2023/08/03 22:29:10;;;;;;;2.47;1.30;;;26.80;90.50;;;;;;4976915;28;20477;-76
2023/08/03 22:31:36;;;;;;;1.77;1.33;;;26.80;90.50;;;;;;4977082;28;20038;-76
2023/08/03 22:34:02;;;;;;;3.15;1.35;;;26.80;90.70;;;;;;4977105;28;20501;-76
2023/08/03 22:36:27;;;;;;;4.20;1.80;;;26.80;90.90;;;;;;4975922;28;20042;-76
2023/08/03 22:38:53;;;;;;;4.28;1.50;;;26.80;90.90;;;;;;4977426;28;20070;-76
2023/08/03 22:41:19;;;;;;;2.33;1.55;;;26.80;90.90;;;;;;4976702;28;20019;-76
2023/08/03 22:43:44;;;;;;;2.63;1.45;;;26.80;90.90;;;;;;4977237;28;20473;-75
2023/08/03 22:46:20;;;;;;;1.60;1.30;;;26.80;91.00;;;;;;4977084;28;20030;-76
2023/08/03 22:48:47;;;;;;;2.55;1.55;;;26.80;91.00;;;;;;4975810;28;20393;-74
2023/08/03 22:51:19;;;;;;;2.78;1.67;;;26.80;91.00;;;;;;4976865;28;20458;-75
2023/08/03 22:53:48;;;;;;;2.38;2.03;;;26.80;91.10;;;;;;4975219;28;20608;-77
2023/08/03 22:56:16;;;;;;;2.53;1.83;;;26.80;91.10;;;;;;4976427;28;20045;-76
2023/08/03 22:58:42;;;;;;;2.35;1.70;;;26.80;91.10;;;;;;4976906;28;20030;-76
2023/08/03 23:01:13;;;;;;;3.35;1.52;;;26.80;91.10;;;;;;4956037;28;20030;-75
2023/08/03 23:03:39;;;;;;;3.20;1.80;;;26.80;91.10;;;;;;4975401;28;20105;-76
2023/08/03 23:06:18;;;;;;;4.00;2.00;;;26.80;91.10;;;;;;4942153;28;20109;-76
2023/08/03 23:08:44;;;;;;;4.03;2.07;;;26.80;91.20;;;;;;4963254;28;20474;-76
2023/08/03 23:11:11;;;;;;;3.75;1.80;;;26.80;91.20;;;;;;4959434;28;20308;-76
2023/08/03 23:13:36;;;;;;;4.47;2.00;;;26.80;91.20;;;;;;4969929;28;20128;-76
2023/08/03 23:16:03;;;;;;;3.15;1.92;;;26.80;91.20;;;;;;4974933;28;20222;-75
2023/08/03 23:18:30;;;;;;;3.92;2.20;;;26.80;91.30;;;;;;4962383;28;20023;-75
2023/08/03 23:20:57;;;;;;;3.95;2.20;;;26.80;91.30;;;;;;4966031;28;20468;-76
2023/08/03 23:23:23;;;;;;;3.47;2.65;;;26.70;91.30;;;;;;4974568;28;20095;-76
2023/08/03 23:25:48;;;;;;;6.15;2.40;;;26.70;91.30;;;;;;4976518;28;20072;-76
2023/08/03 23:28:15;;;;;;;4.85;2.15;;;26.70;91.30;;;;;;4967451;28;20481;-76
2023/08/03 23:30:40;;;;;;;5.32;2.15;;;26.60;91.40;;;;;;4958467;28;20026;-76
2023/08/03 23:33:06;;;;;;;2.70;2.13;;;26.60;91.40;;;;;;4974498;28;20690;-76
2023/08/03 23:35:32;;;;;;;2.90;1.52;;;26.60;91.50;;;;;;4975433;28;20416;-75
2023/08/03 23:37:57;;;;;;;3.85;1.98;;;26.70;91.50;;;;;;4973019;28;20030;-75
2023/08/03 23:40:23;;;;;;;4.20;2.45;;;26.60;91.50;;;;;;4975815;28;20037;-75
2023/08/03 23:42:49;;;;;;;4.20;2.22;;;26.60;91.50;;;;;;4974414;28;20051;-75
2023/08/03 23:45:14;;;;;;;3.92;2.55;;;26.60;91.60;;;;;;4975709;28;20101;-75
2023/08/03 23:47:40;;;;;;;4.22;1.88;;;26.60;91.60;;;;;;4972427;28;20066;-74
2023/08/03 23:50:06;;;;;;;3.80;2.10;;;26.60;91.60;;;;;;4976353;28;20081;-74
2023/08/03 23:52:36;;;;;;;3.78;1.90;;;26.60;91.60;;;;;;4975509;28;20039;-74
2023/08/03 23:55:03;;;;;;;6.65;2.22;;;26.60;91.70;;;;;;4976413;28;20029;-77
2023/08/03 23:57:29;;;;;;;5.68;2.20;;;26.50;91.70;;;;;;4959438;28;20094;-76
2023/08/03 23:59:55;;;;;;;4.78;2.25;;;26.50;91.80;;;;;;4958821;28;20022;-77
